Terminal Aerodrome Forecast
Issued by NWS

Home | Current Version | Previous Version | Text Only | Print | Product List | Glossary On
Versions: 1 2 3 4 5 6 7 8 9 10 11 12 13 14 15 16 17 18 19 20 21 22 23 24 25
000
FTUS43 KDLH 280500
TAFBRD
TAF
KBRD 280525Z 2806/2906 VRB03KT P6SM SCT015 BKN040
      TEMPO 2807/2808 4SM BR
     FM280800 VRB03KT 4SM BR SCT015 BKN040
      TEMPO 2808/2812 1SM BR
     FM281300 14007KT P6SM SCT023 SCT090 BKN180
     FM281900 16007KT P6SM VCTS BKN050CB=

USA.gov is the U.S. government's official web portal to all federal, state and local government web resources and services.